Time;durP1;ratioP1;P1;durP2;ratioP2;P2;SDS_P1;SDS_P2;PMS_P1;PMS_P2;Temp;Humidity;BMP_temperature;BMP_pressure;BME280_temperature;BME280_humidity;BME280_pressure;Samples;Min_cycle;Max_cycle;Signal;HPM_P1;HPM_P2
2024/03/12 00:02:35;;;;;;;8.80;4.32;;;5.50;99.90;;;;;;4985965;28;20472;-73
2024/03/12 00:05:21;;;;;;;13.80;4.17;;;5.50;99.90;;;;;;4986602;28;20710;-72
2024/03/12 00:08:07;;;;;;;5.57;4.45;;;5.50;99.90;;;;;;4984219;28;20603;-73
2024/03/12 00:10:54;;;;;;;10.77;4.83;;;5.50;99.90;;;;;;4983927;28;20224;-72
2024/03/12 00:13:40;;;;;;;5.20;4.00;;;5.40;99.90;;;;;;4985044;28;20525;-72
2024/03/12 00:16:26;;;;;;;4.97;4.47;;;5.40;99.90;;;;;;4983442;28;20468;-73
2024/03/12 00:19:12;;;;;;;4.63;4.17;;;5.40;99.90;;;;;;4986998;28;20870;-73
2024/03/12 00:21:57;;;;;;;4.82;4.32;;;5.30;99.90;;;;;;4987023;28;20918;-72
2024/03/12 00:24:44;;;;;;;5.13;3.87;;;5.40;99.90;;;;;;4989976;28;20791;-73
2024/03/12 00:27:32;;;;;;;8.23;4.20;;;5.30;99.90;;;;;;4985228;28;20481;-73
2024/03/12 00:30:19;;;;;;;3.70;3.17;;;5.20;99.90;;;;;;4984022;28;20219;-73
2024/03/12 00:33:05;;;;;;;7.60;4.10;;;5.20;99.90;;;;;;4983953;28;21064;-73
2024/03/12 00:35:51;;;;;;;3.95;3.42;;;5.10;99.90;;;;;;4984218;28;20335;-73
2024/03/12 00:38:37;;;;;;;6.55;4.82;;;5.10;99.90;;;;;;4983192;28;20804;-74
2024/03/12 00:41:23;;;;;;;11.77;6.80;;;5.20;99.90;;;;;;4980769;28;20334;-71
2024/03/12 00:44:10;;;;;;;4.83;3.83;;;5.30;99.90;;;;;;4986670;28;20455;-74
2024/03/12 00:46:55;;;;;;;4.57;3.95;;;5.30;99.90;;;;;;4984239;28;20480;-72
2024/03/12 00:49:41;;;;;;;6.13;4.25;;;5.30;99.90;;;;;;4988292;28;20617;-72
2024/03/12 00:52:27;;;;;;;8.90;4.80;;;5.20;99.90;;;;;;4985681;28;20225;-72
2024/03/12 00:55:16;;;;;;;8.60;4.23;;;5.20;99.90;;;;;;4982712;28;20515;-73
2024/03/12 00:58:02;;;;;;;5.20;3.93;;;5.20;99.90;;;;;;4981308;28;21132;-73
2024/03/12 01:00:51;;;;;;;5.25;3.78;;;5.30;99.90;;;;;;4987128;28;20467;-73
2024/03/12 01:03:37;;;;;;;4.90;3.77;;;5.30;99.90;;;;;;4986903;28;20219;-72
2024/03/12 01:06:22;;;;;;;8.53;4.63;;;5.30;99.90;;;;;;4986013;28;20459;-73
2024/03/12 01:09:08;;;;;;;7.60;4.10;;;5.30;99.90;;;;;;4985196;28;20453;-73
2024/03/12 01:11:55;;;;;;;7.67;4.50;;;5.30;99.90;;;;;;4986291;28;21386;-72
2024/03/12 01:14:40;;;;;;;6.20;4.20;;;5.30;99.90;;;;;;4984788;28;21092;-72
2024/03/12 01:17:28;;;;;;;7.00;4.50;;;5.30;99.90;;;;;;4986687;28;20229;-73
2024/03/12 01:20:16;;;;;;;6.25;4.75;;;5.30;99.90;;;;;;4990750;28;20357;-73
2024/03/12 01:23:02;;;;;;;5.50;4.20;;;5.30;99.90;;;;;;4988987;28;20213;-73
2024/03/12 01:25:47;;;;;;;6.80;4.57;;;5.30;99.90;;;;;;4978136;28;20542;-72
2024/03/12 01:28:34;;;;;;;6.20;4.43;;;5.30;99.90;;;;;;4986129;28;20518;-72
2024/03/12 01:31:21;;;;;;;5.80;4.50;;;5.40;99.90;;;;;;4985053;28;20201;-73
2024/03/12 01:34:08;;;;;;;6.17;4.00;;;5.40;99.90;;;;;;4988082;28;20291;-73
2024/03/12 01:36:54;;;;;;;5.10;4.60;;;5.50;99.90;;;;;;4983432;28;20483;-72
2024/03/12 01:39:40;;;;;;;9.10;5.88;;;5.50;99.90;;;;;;4990890;28;20212;-72
2024/03/12 01:42:25;;;;;;;11.70;8.90;;;5.60;99.90;;;;;;4987784;28;20245;-73
2024/03/12 01:45:12;;;;;;;13.70;12.30;;;5.60;99.90;;;;;;4986178;28;20324;-74
2024/03/12 01:48:01;;;;;;;15.07;13.47;;;5.60;99.90;;;;;;4989168;28;21059;-72
2024/03/12 01:50:48;;;;;;;13.18;11.82;;;5.60;99.90;;;;;;4988494;28;21042;-71
2024/03/12 01:53:34;;;;;;;10.87;9.87;;;5.70;99.90;;;;;;4987299;28;20697;-73
2024/03/12 01:56:19;;;;;;;15.47;11.47;;;5.70;99.90;;;;;;4986641;28;20532;-73
2024/03/12 01:59:05;;;;;;;12.13;11.03;;;5.80;99.90;;;;;;4979314;28;20521;-72
2024/03/12 02:01:59;;;;;;;15.10;11.67;;;5.80;99.90;;;;;;4987049;28;21074;-73
2024/03/12 02:04:45;;;;;;;11.53;9.97;;;5.80;99.90;;;;;;4987843;28;20620;-74
2024/03/12 02:07:33;;;;;;;10.47;9.40;;;5.90;99.90;;;;;;4991736;28;20471;-72
2024/03/12 02:10:19;;;;;;;9.67;8.67;;;6.00;99.90;;;;;;4989778;28;20431;-72
2024/03/12 02:13:05;;;;;;;8.77;6.80;;;6.10;99.90;;;;;;4988576;28;21029;-72
2024/03/12 02:15:51;;;;;;;7.60;5.80;;;6.20;99.90;;;;;;4989765;28;20924;-73
2024/03/12 02:18:37;;;;;;;5.73;4.90;;;6.40;99.90;;;;;;4988561;28;20815;-72
2024/03/12 02:21:24;;;;;;;6.80;5.57;;;6.50;99.90;;;;;;4989542;28;20498;-72
2024/03/12 02:24:11;;;;;;;7.40;4.60;;;6.60;99.90;;;;;;4988020;28;20456;-72
2024/03/12 02:26:57;;;;;;;6.90;4.37;;;6.70;99.90;;;;;;4986741;28;20449;-73
2024/03/12 02:29:44;;;;;;;5.07;3.80;;;6.70;99.90;;;;;;4988007;28;21002;-72
2024/03/12 02:32:29;;;;;;;5.97;3.60;;;6.70;99.90;;;;;;4988829;28;20432;-72
2024/03/12 02:35:15;;;;;;;7.47;4.37;;;6.90;99.90;;;;;;4988384;28;20451;-73
2024/03/12 02:38:01;;;;;;;5.80;4.17;;;6.90;99.90;;;;;;4986725;28;20480;-73
2024/03/12 02:40:49;;;;;;;6.63;4.00;;;6.90;99.90;;;;;;4985296;28;20549;-72
2024/03/12 02:43:35;;;;;;;6.17;4.40;;;7.00;99.90;;;;;;4985229;28;21038;-72
2024/03/12 02:46:22;;;;;;;4.97;3.60;;;7.00;99.90;;;;;;4987338;28;20449;-73
2024/03/12 02:49:09;;;;;;;5.67;3.80;;;7.10;99.90;;;;;;4985524;28;20468;-72
2024/03/12 02:51:55;;;;;;;6.90;3.70;;;7.10;99.90;;;;;;4989047;28;20578;-72
2024/03/12 02:54:41;;;;;;;5.40;3.60;;;7.20;99.90;;;;;;4986987;28;21168;-72
2024/03/12 02:57:28;;;;;;;7.67;3.60;;;7.30;99.90;;;;;;4986743;28;20465;-72
2024/03/12 03:00:14;;;;;;;7.33;4.53;;;7.30;99.90;;;;;;4988497;28;20525;-73
2024/03/12 03:03:00;;;;;;;4.77;3.17;;;7.30;99.90;;;;;;4988062;28;21016;-72
2024/03/12 03:05:46;;;;;;;9.87;3.87;;;7.40;99.90;;;;;;4985703;28;20464;-72
2024/03/12 03:08:31;;;;;;;6.80;3.97;;;7.40;99.90;;;;;;4986349;28;20464;-73
2024/03/12 03:11:17;;;;;;;7.70;4.07;;;7.50;99.90;;;;;;4986571;28;20528;-73
2024/03/12 03:14:04;;;;;;;6.97;3.80;;;7.50;99.90;;;;;;4987026;28;20457;-72
2024/03/12 03:16:53;;;;;;;7.70;3.90;;;7.50;99.90;;;;;;4987487;28;20452;-72
2024/03/12 03:19:39;;;;;;;5.07;3.80;;;7.60;99.90;;;;;;4985870;28;20456;-72
2024/03/12 03:22:25;;;;;;;11.03;4.97;;;7.60;99.90;;;;;;4985501;28;20480;-72
2024/03/12 03:25:12;;;;;;;4.60;3.60;;;7.60;99.90;;;;;;4986994;28;20532;-72
2024/03/12 03:27:58;;;;;;;7.20;3.40;;;7.60;99.90;;;;;;4985507;28;20489;-72
2024/03/12 03:30:45;;;;;;;5.40;3.63;;;7.70;99.90;;;;;;4984399;28;20788;-72
2024/03/12 03:33:31;;;;;;;7.77;3.33;;;7.70;99.90;;;;;;4986365;28;20460;-73
2024/03/12 03:36:17;;;;;;;6.33;3.77;;;7.70;99.90;;;;;;4983563;28;20510;-74
2024/03/12 03:39:03;;;;;;;5.00;3.60;;;7.80;99.90;;;;;;4983889;28;20448;-72
2024/03/12 03:41:48;;;;;;;5.67;3.60;;;7.80;99.90;;;;;;4983273;28;20500;-74
2024/03/12 03:44:34;;;;;;;6.50;3.73;;;7.80;99.90;;;;;;4983400;28;20448;-74
2024/03/12 03:47:21;;;;;;;4.93;4.00;;;7.90;99.90;;;;;;4983474;28;20531;-72
2024/03/12 03:50:07;;;;;;;5.40;3.97;;;8.00;99.90;;;;;;4985927;28;20971;-73
2024/03/12 03:52:53;;;;;;;9.90;3.80;;;8.00;99.90;;;;;;4984334;28;20940;-72
2024/03/12 03:55:39;;;;;;;9.67;4.30;;;8.20;99.90;;;;;;4981082;28;20938;-73
2024/03/12 03:58:25;;;;;;;6.10;4.60;;;8.20;99.90;;;;;;4983345;28;20608;-72
2024/03/12 04:01:13;;;;;;;5.27;3.67;;;8.30;99.90;;;;;;4981720;28;20956;-72
2024/03/12 04:04:10;;;;;;;4.80;3.60;;;8.30;99.90;;;;;;4984975;28;20469;-73
2024/03/12 04:06:56;;;;;;;6.03;4.77;;;8.40;99.90;;;;;;4984719;28;20519;-72
2024/03/12 04:09:41;;;;;;;5.23;4.00;;;8.40;99.90;;;;;;4984699;28;20453;-73
2024/03/12 04:12:27;;;;;;;6.67;4.40;;;8.40;99.90;;;;;;4985135;28;20997;-72
2024/03/12 04:15:13;;;;;;;6.77;4.53;;;8.40;99.90;;;;;;4980628;28;20834;-73
2024/03/12 04:17:59;;;;;;;6.30;3.97;;;8.40;99.90;;;;;;4983007;28;20529;-73
2024/03/12 04:20:47;;;;;;;7.57;4.90;;;8.50;99.90;;;;;;4981773;28;20473;-73
2024/03/12 04:23:33;;;;;;;6.73;4.33;;;8.50;99.90;;;;;;4981953;28;20608;-72
2024/03/12 04:26:19;;;;;;;5.17;4.10;;;8.50;99.90;;;;;;4985130;28;20504;-72
2024/03/12 04:29:05;;;;;;;9.00;4.53;;;8.60;99.90;;;;;;4984215;28;20435;-73
2024/03/12 04:31:50;;;;;;;6.17;4.33;;;8.60;99.90;;;;;;4987210;28;20469;-72
2024/03/12 04:34:37;;;;;;;6.10;4.20;;;8.60;99.90;;;;;;4985022;28;20457;-73
2024/03/12 04:37:23;;;;;;;6.27;4.10;;;8.70;99.90;;;;;;4984066;28;20488;-72
2024/03/12 04:40:11;;;;;;;7.00;4.20;;;8.70;99.90;;;;;;4986100;28;20468;-72
2024/03/12 04:42:56;;;;;;;5.87;4.07;;;8.70;99.90;;;;;;4983538;28;21016;-73
2024/03/12 04:45:43;;;;;;;11.77;4.90;;;8.80;99.90;;;;;;4987615;28;20523;-73
2024/03/12 04:48:29;;;;;;;7.30;4.50;;;8.70;99.90;;;;;;4987137;28;20449;-73
2024/03/12 04:51:15;;;;;;;8.73;5.17;;;8.80;99.90;;;;;;4988497;28;21028;-72
2024/03/12 04:54:03;;;;;;;5.83;4.13;;;8.80;99.90;;;;;;4989592;28;20436;-72
2024/03/12 04:56:50;;;;;;;6.10;4.33;;;8.90;99.90;;;;;;4989220;28;20461;-72
2024/03/12 04:59:36;;;;;;;7.23;4.80;;;8.90;99.90;;;;;;4989398;28;20977;-72
2024/03/12 05:02:22;;;;;;;5.97;3.97;;;8.90;99.90;;;;;;4989697;28;20991;-74
2024/03/12 05:05:08;;;;;;;6.33;4.57;;;8.90;99.90;;;;;;4990034;28;20924;-72
2024/03/12 05:07:54;;;;;;;8.40;4.53;;;8.80;99.90;;;;;;4986595;28;20477;-73
2024/03/12 05:10:41;;;;;;;12.10;5.40;;;8.90;99.90;;;;;;4988281;28;20475;-74
2024/03/12 05:13:26;;;;;;;7.57;4.70;;;8.90;99.90;;;;;;4988557;28;20568;-72
2024/03/12 05:16:12;;;;;;;11.30;6.73;;;8.90;99.90;;;;;;4989197;28;20457;-73
2024/03/12 05:18:58;;;;;;;11.20;6.20;;;8.90;99.90;;;;;;4986675;28;20441;-73
2024/03/12 05:21:43;;;;;;;9.83;5.63;;;8.90;99.90;;;;;;4991330;28;20535;-73
2024/03/12 05:24:31;;;;;;;7.50;4.80;;;8.90;99.90;;;;;;4988960;28;20520;-73
2024/03/12 05:27:32;;;;;;;8.10;4.67;;;9.00;99.90;;;;;;4990119;28;20436;-72
2024/03/12 05:30:20;;;;;;;8.10;5.20;;;9.00;99.90;;;;;;4990396;28;20444;-72
2024/03/12 05:33:09;;;;;;;10.87;5.63;;;9.00;99.90;;;;;;4988700;28;20437;-73
2024/03/12 05:35:56;;;;;;;9.97;5.60;;;9.00;99.90;;;;;;4987879;28;20453;-72
2024/03/12 05:38:55;;;;;;;8.33;5.37;;;9.00;99.90;;;;;;4989118;28;20947;-73
2024/03/12 05:41:49;;;;;;;9.83;6.47;;;9.10;99.90;;;;;;4982660;28;21019;-74
2024/03/12 05:50:43;;;;;;;8.80;5.50;;;9.20;99.90;;;;;;4987600;28;20545;-72
2024/03/12 05:53:29;;;;;;;8.80;5.80;;;9.10;99.90;;;;;;4986183;28;20577;-73
2024/03/12 05:56:14;;;;;;;8.70;5.53;;;9.10;99.90;;;;;;4986444;28;20505;-72
2024/03/12 05:59:00;;;;;;;7.97;6.37;;;9.10;99.90;;;;;;4985541;28;20524;-73
2024/03/12 06:01:47;;;;;;;7.87;5.63;;;9.10;99.90;;;;;;4985550;28;20438;-72
2024/03/12 06:04:33;;;;;;;6.77;5.63;;;9.10;99.90;;;;;;4985348;28;20456;-73
2024/03/12 06:07:18;;;;;;;8.50;6.23;;;9.10;99.90;;;;;;4985801;28;20487;-73
2024/03/12 06:10:05;;;;;;;11.80;5.87;;;9.10;99.90;;;;;;4988469;28;20508;-72
2024/03/12 06:12:51;;;;;;;8.40;5.60;;;9.10;99.90;;;;;;4989462;28;20514;-73
2024/03/12 06:15:37;;;;;;;7.17;5.37;;;9.10;99.90;;;;;;4987085;28;20991;-73
2024/03/12 06:18:24;;;;;;;7.73;5.40;;;9.10;99.90;;;;;;4987177;28;20559;-73
2024/03/12 06:21:09;;;;;;;8.63;6.57;;;9.10;99.90;;;;;;4982000;28;20537;-72
2024/03/12 06:23:55;;;;;;;11.23;6.03;;;9.00;99.90;;;;;;4985020;28;20485;-72
2024/03/12 06:26:41;;;;;;;8.97;6.57;;;9.00;99.90;;;;;;4985458;28;20463;-73
2024/03/12 06:29:28;;;;;;;7.60;5.33;;;9.00;99.90;;;;;;4985601;28;20476;-72
2024/03/12 06:32:17;;;;;;;6.17;4.97;;;9.00;99.90;;;;;;4984731;28;20508;-73
2024/03/12 06:35:04;;;;;;;8.27;6.07;;;9.00;99.90;;;;;;4979754;28;20468;-72
2024/03/12 06:37:50;;;;;;;9.70;5.57;;;9.00;99.90;;;;;;4984497;28;20477;-72
2024/03/12 06:40:36;;;;;;;8.23;5.77;;;9.00;99.90;;;;;;4987655;28;20464;-73
2024/03/12 06:43:22;;;;;;;9.30;6.10;;;9.00;99.90;;;;;;4988281;28;20508;-73
2024/03/12 06:46:09;;;;;;;9.43;5.47;;;9.00;99.90;;;;;;4988918;28;20459;-74
2024/03/12 06:48:54;;;;;;;13.97;6.23;;;9.00;99.90;;;;;;4988669;28;20476;-72
2024/03/12 06:51:42;;;;;;;8.97;5.63;;;9.00;99.90;;;;;;4988372;28;20510;-74
2024/03/12 06:54:28;;;;;;;8.10;6.13;;;9.00;99.90;;;;;;4986137;28;20474;-73
2024/03/12 06:57:13;;;;;;;8.70;6.80;;;9.00;99.90;;;;;;4987882;28;20468;-73
2024/03/12 07:00:08;;;;;;;8.33;6.03;;;9.10;99.90;;;;;;4986934;28;20452;-73
2024/03/12 07:02:54;;;;;;;8.43;5.73;;;9.00;99.90;;;;;;4987176;28;20474;-72
2024/03/12 07:05:43;;;;;;;7.30;5.23;;;9.00;99.90;;;;;;4989661;28;20499;-73
2024/03/12 07:08:30;;;;;;;10.33;6.73;;;9.10;99.90;;;;;;4992082;28;20463;-73
2024/03/12 07:11:17;;;;;;;6.83;5.77;;;9.10;99.90;;;;;;4985748;28;20453;-73
2024/03/12 07:14:12;;;;;;;11.40;6.07;;;9.10;99.90;;;;;;4986530;28;20493;-73
2024/03/12 07:16:57;;;;;;;10.03;6.97;;;9.10;99.90;;;;;;4989835;28;20464;-73
2024/03/12 07:19:43;;;;;;;7.27;5.67;;;9.10;99.90;;;;;;4988513;28;20529;-73
2024/03/12 07:22:29;;;;;;;6.37;5.43;;;9.10;99.90;;;;;;4988931;28;21992;-73
2024/03/12 07:25:16;;;;;;;8.03;5.60;;;9.10;99.90;;;;;;4988009;28;20581;-73
2024/03/12 07:28:05;;;;;;;8.80;6.30;;;9.20;99.90;;;;;;4987903;28;20457;-73
2024/03/12 07:30:50;;;;;;;7.93;5.70;;;9.20;99.90;;;;;;4988430;28;21085;-73
2024/03/12 07:33:36;;;;;;;9.70;6.57;;;9.20;99.90;;;;;;4985253;28;20989;-73
2024/03/12 07:36:23;;;;;;;8.63;6.30;;;9.10;99.90;;;;;;4981915;28;20449;-74
2024/03/12 07:39:24;;;;;;;8.23;6.13;;;9.20;99.90;;;;;;4984807;28;20481;-73
2024/03/12 07:42:18;;;;;;;14.60;7.10;;;9.20;99.90;;;;;;4983217;28;20477;-73
2024/03/12 07:45:05;;;;;;;11.33;6.90;;;9.20;99.90;;;;;;4983069;28;20465;-73
2024/03/12 07:47:50;;;;;;;8.47;6.43;;;9.10;99.90;;;;;;4984154;28;20602;-72
2024/03/12 07:50:36;;;;;;;9.53;6.13;;;9.10;99.90;;;;;;4986005;28;20523;-74
2024/03/12 07:53:22;;;;;;;10.77;6.07;;;9.10;99.90;;;;;;4984285;28;20932;-73
2024/03/12 07:56:09;;;;;;;11.30;7.30;;;9.10;99.90;;;;;;4981547;28;20536;-73
2024/03/12 07:58:56;;;;;;;11.93;6.13;;;9.00;99.90;;;;;;4985436;28;20818;-73
2024/03/12 08:01:42;;;;;;;8.60;6.97;;;9.00;99.90;;;;;;4983105;28;20603;-73
2024/03/12 08:04:28;;;;;;;9.33;7.13;;;9.10;99.90;;;;;;4982345;28;20967;-73
2024/03/12 08:07:14;;;;;;;10.87;7.63;;;9.10;99.90;;;;;;4983150;28;20481;-73
2024/03/12 08:09:59;;;;;;;8.57;7.03;;;9.00;99.90;;;;;;4983897;28;20523;-73
2024/03/12 08:12:45;;;;;;;11.53;7.33;;;9.00;99.90;;;;;;4983240;28;20450;-72
2024/03/12 08:15:32;;;;;;;9.67;6.90;;;9.00;99.90;;;;;;4981644;28;20512;-73
2024/03/12 08:18:18;;;;;;;10.80;7.50;;;9.10;99.90;;;;;;4986410;28;20527;-74
2024/03/12 08:21:04;;;;;;;10.43;7.23;;;9.10;99.90;;;;;;4983004;28;20513;-73
2024/03/12 08:23:50;;;;;;;10.50;7.77;;;9.20;99.90;;;;;;4981968;28;20478;-73
2024/03/12 08:26:36;;;;;;;9.10;6.37;;;9.20;99.90;;;;;;4989137;28;20556;-73
2024/03/12 08:29:21;;;;;;;9.53;6.90;;;9.30;99.90;;;;;;4989661;28;20465;-73
2024/03/12 08:32:08;;;;;;;11.83;8.03;;;9.30;99.90;;;;;;4990368;28;20895;-72
2024/03/12 08:34:54;;;;;;;8.80;7.07;;;9.20;99.90;;;;;;4989343;28;20509;-72
2024/03/12 08:37:40;;;;;;;11.57;8.50;;;9.30;99.90;;;;;;4987444;28;21023;-72
2024/03/12 08:40:25;;;;;;;11.50;8.07;;;9.30;99.90;;;;;;4988551;28;20964;-72
2024/03/12 08:43:12;;;;;;;11.43;7.97;;;9.30;99.90;;;;;;4986288;28;20483;-73
2024/03/12 08:45:58;;;;;;;12.30;8.97;;;9.30;99.90;;;;;;4989091;28;20457;-71
2024/03/12 08:48:45;;;;;;;10.80;8.17;;;9.30;99.90;;;;;;4988734;28;20613;-72
2024/03/12 08:51:35;;;;;;;15.00;9.80;;;9.40;99.90;;;;;;4988741;28;20431;-72
2024/03/12 08:54:21;;;;;;;13.60;9.73;;;9.40;99.90;;;;;;4988050;28;20472;-73
2024/03/12 08:57:07;;;;;;;13.03;8.90;;;9.40;99.90;;;;;;4990506;28;20457;-73
2024/03/12 08:59:52;;;;;;;13.67;9.63;;;9.40;99.90;;;;;;4989800;28;20464;-73
2024/03/12 09:02:39;;;;;;;14.40;9.40;;;9.40;99.90;;;;;;4990853;28;20434;-72
2024/03/12 09:05:26;;;;;;;15.13;10.60;;;9.40;99.90;;;;;;4988654;28;20442;-73
2024/03/12 09:08:11;;;;;;;24.33;10.47;;;9.30;99.90;;;;;;4991433;28;20427;-72
2024/03/12 09:10:57;;;;;;;15.87;9.97;;;9.30;99.90;;;;;;4987339;28;20642;-72
2024/03/12 09:13:43;;;;;;;15.63;9.93;;;9.30;99.90;;;;;;4990574;28;20437;-73
2024/03/12 09:16:28;;;;;;;17.07;10.33;;;9.30;99.90;;;;;;4988974;28;20548;-72
2024/03/12 09:19:15;;;;;;;17.67;9.50;;;9.30;99.90;;;;;;4987514;28;20536;-72
2024/03/12 09:22:03;;;;;;;16.37;10.13;;;9.40;99.90;;;;;;4985806;28;20432;-74
2024/03/12 09:24:49;;;;;;;13.57;10.67;;;9.40;99.90;;;;;;4987479;28;21071;-72
2024/03/12 09:27:35;;;;;;;14.90;11.40;;;9.50;99.90;;;;;;4986675;28;20482;-72
2024/03/12 09:30:21;;;;;;;15.60;11.23;;;9.50;99.90;;;;;;4984244;28;20456;-72
2024/03/12 09:33:07;;;;;;;15.60;10.23;;;9.60;99.90;;;;;;4985922;28;20826;-74
2024/03/12 09:35:53;;;;;;;14.93;11.03;;;9.50;99.90;;;;;;4984480;28;20457;-73
2024/03/12 09:38:40;;;;;;;15.07;10.30;;;9.50;99.90;;;;;;4986929;28;21022;-73
2024/03/12 09:41:27;;;;;;;15.60;10.47;;;9.60;99.90;;;;;;4988518;28;20964;-74
2024/03/12 09:44:13;;;;;;;17.70;10.87;;;9.50;99.90;;;;;;4984762;28;20528;-74
2024/03/12 09:46:58;;;;;;;16.00;11.90;;;9.60;99.90;;;;;;4985317;28;20455;-73
2024/03/12 09:49:44;;;;;;;15.47;11.23;;;9.60;99.90;;;;;;4984053;28;20426;-74
2024/03/12 09:52:31;;;;;;;17.00;11.90;;;9.60;99.90;;;;;;4986345;28;20428;-74
2024/03/12 09:55:19;;;;;;;17.33;11.83;;;9.60;99.90;;;;;;4987300;28;20805;-71
2024/03/12 09:58:06;;;;;;;17.10;12.23;;;9.60;99.90;;;;;;4986086;28;20450;-73
2024/03/12 10:00:53;;;;;;;15.20;10.90;;;9.60;99.90;;;;;;4988522;28;20551;-70
2024/03/12 10:03:38;;;;;;;17.47;10.53;;;9.60;99.90;;;;;;4987084;28;20949;-74
2024/03/12 10:06:25;;;;;;;17.43;12.07;;;9.60;99.90;;;;;;4986526;28;20431;-74
2024/03/12 10:09:17;;;;;;;15.63;11.97;;;9.60;99.90;;;;;;4981958;28;20457;-73
2024/03/12 10:12:04;;;;;;;16.20;10.83;;;9.50;99.90;;;;;;4983640;28;20982;-73
2024/03/12 10:14:50;;;;;;;16.50;12.17;;;9.50;99.90;;;;;;4980801;28;20478;-73
2024/03/12 10:17:36;;;;;;;16.50;12.17;;;9.50;99.90;;;;;;4983806;28;21020;-73
2024/03/12 10:20:21;;;;;;;19.00;12.57;;;9.40;99.90;;;;;;4988648;28;20457;-72
2024/03/12 10:23:09;;;;;;;25.37;12.40;;;9.40;99.90;;;;;;4983919;28;20621;-74
2024/03/12 10:26:07;;;;;;;15.67;12.17;;;9.30;99.90;;;;;;4983502;28;20942;-72
2024/03/12 10:28:55;;;;;;;19.67;12.60;;;9.30;99.90;;;;;;4985791;28;20456;-71
2024/03/12 10:31:43;;;;;;;19.97;13.30;;;9.30;99.90;;;;;;4991253;28;20461;-69
2024/03/12 10:34:29;;;;;;;16.67;11.83;;;9.30;99.90;;;;;;4988212;28;20469;-72
2024/03/12 10:37:27;;;;;;;19.40;12.50;;;9.30;99.90;;;;;;4987956;28;20484;-72
2024/03/12 10:40:16;;;;;;;17.93;12.87;;;9.30;99.90;;;;;;4986525;28;20460;-72
2024/03/12 10:43:01;;;;;;;22.13;11.97;;;9.40;99.90;;;;;;4986232;28;20478;-72
2024/03/12 10:45:50;;;;;;;17.67;12.40;;;9.40;99.90;;;;;;4986618;28;20431;-73
2024/03/12 10:48:36;;;;;;;17.67;12.47;;;9.40;99.90;;;;;;4983494;28;20447;-71
2024/03/12 10:51:22;;;;;;;21.40;13.50;;;9.40;99.90;;;;;;4988902;28;20438;-71
2024/03/12 10:54:11;;;;;;;20.03;13.40;;;9.40;99.90;;;;;;4991369;28;20436;-72
2024/03/12 10:56:58;;;;;;;16.30;13.10;;;9.40;99.90;;;;;;4987748;28;20464;-72
2024/03/12 10:59:44;;;;;;;17.40;12.70;;;9.50;99.90;;;;;;4989083;28;20416;-71
2024/03/12 11:02:31;;;;;;;18.23;12.53;;;9.50;99.90;;;;;;4989221;28;20449;-72
2024/03/12 11:05:20;;;;;;;17.67;11.90;;;9.60;99.90;;;;;;4989366;28;20488;-72
2024/03/12 11:08:10;;;;;;;21.23;12.70;;;9.60;99.90;;;;;;4987640;28;20524;-72
2024/03/12 11:10:59;;;;;;;20.27;12.93;;;9.70;99.90;;;;;;4985545;28;20821;-73
2024/03/12 11:13:44;;;;;;;21.43;14.87;;;9.60;99.90;;;;;;4985470;28;20816;-72
2024/03/12 11:16:34;;;;;;;18.47;14.17;;;9.50;99.90;;;;;;4984074;28;20855;-72
2024/03/12 11:19:24;;;;;;;17.27;12.40;;;9.50;99.90;;;;;;4986005;28;20589;-71
2024/03/12 11:22:11;;;;;;;19.77;13.00;;;9.60;99.90;;;;;;4986686;28;20841;-73
2024/03/12 11:24:58;;;;;;;19.90;13.13;;;9.60;99.90;;;;;;4986620;28;21073;-73
2024/03/12 11:27:44;;;;;;;18.43;13.10;;;9.60;99.90;;;;;;4986247;28;20448;-71
2024/03/12 11:30:29;;;;;;;22.10;13.70;;;9.70;99.90;;;;;;4988283;28;21068;-73
2024/03/12 11:33:41;;;;;;;21.70;13.53;;;9.70;99.90;;;;;;4988584;28;20453;-74
2024/03/12 11:36:34;;;;;;;22.40;14.87;;;9.70;99.90;;;;;;4986166;28;20456;-74
2024/03/12 11:39:29;;;;;;;26.80;15.03;;;9.70;99.90;;;;;;4988084;28;20451;-74
2024/03/12 11:42:18;;;;;;;28.63;14.50;;;9.70;99.90;;;;;;4987233;28;20437;-74
2024/03/12 11:45:06;;;;;;;20.23;13.80;;;9.80;99.90;;;;;;4986307;28;21131;-74
2024/03/12 11:47:55;;;;;;;22.90;15.33;;;9.90;99.90;;;;;;4987672;28;20464;-71
2024/03/12 11:50:42;;;;;;;25.83;13.30;;;9.90;99.90;;;;;;4985813;28;20460;-73
2024/03/12 11:53:31;;;;;;;19.40;13.63;;;9.90;99.90;;;;;;4991164;28;20487;-73
2024/03/12 11:56:19;;;;;;;19.13;12.93;;;10.00;99.90;;;;;;4986719;28;20528;-74
2024/03/12 11:59:07;;;;;;;21.00;13.40;;;10.00;99.90;;;;;;4987168;28;20581;-74
2024/03/12 12:01:53;;;;;;;24.20;14.60;;;10.00;99.90;;;;;;4985701;28;20460;-74
2024/03/12 12:04:38;;;;;;;24.03;14.53;;;10.10;99.90;;;;;;4987277;28;20617;-72
2024/03/12 12:07:27;;;;;;;20.83;15.37;;;10.00;99.90;;;;;;4985828;28;20428;-71
2024/03/12 12:10:15;;;;;;;21.87;12.90;;;10.00;99.90;;;;;;4986509;28;20922;-73
2024/03/12 12:13:11;;;;;;;19.67;13.80;;;9.90;99.90;;;;;;4988665;28;20493;-73
2024/03/12 12:15:59;;;;;;;22.20;14.70;;;10.00;99.90;;;;;;4983517;28;20437;-71
2024/03/12 12:18:47;;;;;;;18.83;12.60;;;10.00;99.90;;;;;;4984735;28;20573;-72
2024/03/12 12:21:33;;;;;;;19.27;12.53;;;10.00;99.90;;;;;;4987210;28;20981;-73
2024/03/12 12:24:18;;;;;;;22.60;13.87;;;10.00;99.90;;;;;;4988178;28;20831;-74
2024/03/12 12:27:06;;;;;;;21.17;14.63;;;10.00;99.90;;;;;;4986191;28;20527;-74
2024/03/12 12:29:53;;;;;;;27.07;14.63;;;10.10;99.90;;;;;;4977380;28;20585;-71
2024/03/12 12:32:40;;;;;;;19.10;13.23;;;10.10;99.90;;;;;;4973764;28;20561;-71
2024/03/12 12:35:28;;;;;;;22.00;14.03;;;10.20;99.90;;;;;;4972705;28;20460;-74
2024/03/12 12:38:16;;;;;;;16.83;12.97;;;10.20;99.90;;;;;;4975430;28;20613;-71
2024/03/12 12:41:02;;;;;;;28.30;14.40;;;10.20;99.90;;;;;;4975101;28;20980;-72
2024/03/12 12:43:49;;;;;;;18.57;13.20;;;10.20;99.90;;;;;;4972021;28;20494;-73
2024/03/12 12:46:38;;;;;;;21.73;12.53;;;10.20;99.90;;;;;;4975458;28;20449;-73
2024/03/12 12:49:24;;;;;;;25.77;14.40;;;10.20;99.90;;;;;;4974744;28;20604;-72
2024/03/12 12:52:10;;;;;;;26.90;14.73;;;10.30;99.90;;;;;;4972683;28;20464;-73
2024/03/12 12:54:59;;;;;;;24.70;16.30;;;10.30;99.90;;;;;;4977123;28;20956;-71
2024/03/12 12:57:44;;;;;;;25.27;16.00;;;10.20;99.90;;;;;;4981773;28;20477;-73
2024/03/12 13:00:35;;;;;;;23.77;16.00;;;10.10;99.90;;;;;;4983725;28;20839;-73
2024/03/12 13:03:21;;;;;;;25.70;16.50;;;10.00;99.90;;;;;;4979183;28;20601;-74
2024/03/12 13:06:15;;;;;;;25.30;16.70;;;9.90;99.90;;;;;;4980511;28;20932;-74
2024/03/12 13:09:03;;;;;;;24.97;15.97;;;10.00;99.90;;;;;;4983582;28;20466;-73
2024/03/12 13:11:49;;;;;;;22.90;16.80;;;9.90;99.90;;;;;;4988372;28;20460;-73
2024/03/12 13:14:36;;;;;;;23.97;16.30;;;9.80;99.90;;;;;;4987123;28;20457;-72
2024/03/12 13:17:23;;;;;;;24.03;16.07;;;9.90;99.90;;;;;;4987381;28;20559;-74
2024/03/12 13:20:13;;;;;;;26.63;16.90;;;10.00;99.90;;;;;;4988907;28;20874;-74
2024/03/12 13:22:59;;;;;;;25.50;16.03;;;9.90;99.90;;;;;;4987233;28;20484;-72
2024/03/12 13:25:45;;;;;;;27.20;17.50;;;10.00;99.90;;;;;;4985359;28;20475;-70
2024/03/12 13:28:31;;;;;;;28.17;17.70;;;10.00;99.90;;;;;;4986565;28;20491;-72
2024/03/12 13:31:17;;;;;;;25.70;17.80;;;9.80;99.90;;;;;;4986219;28;20450;-71
2024/03/12 13:34:07;;;;;;;24.27;16.30;;;9.80;99.90;;;;;;4985395;28;20545;-73
2024/03/12 13:36:53;;;;;;;26.00;16.30;;;9.90;99.90;;;;;;4988368;28;20708;-71
2024/03/12 13:39:39;;;;;;;27.47;17.13;;;10.00;99.90;;;;;;4987548;28;20804;-74
2024/03/12 13:42:26;;;;;;;27.97;17.37;;;10.00;99.90;;;;;;4987018;28;20456;-75
2024/03/12 13:45:11;;;;;;;30.23;18.60;;;10.10;99.90;;;;;;4987241;28;20475;-73
2024/03/12 13:47:57;;;;;;;26.97;17.30;;;10.00;99.90;;;;;;4986936;28;20490;-74
2024/03/12 13:50:47;;;;;;;31.20;18.90;;;10.00;99.90;;;;;;4989838;28;20589;-74
2024/03/12 13:53:32;;;;;;;27.57;18.23;;;10.10;99.90;;;;;;4988103;28;20457;-74
2024/03/12 13:56:19;;;;;;;28.03;17.03;;;10.10;99.90;;;;;;4988093;28;20449;-74
2024/03/12 13:59:05;;;;;;;29.17;17.30;;;10.10;99.90;;;;;;4985496;28;20515;-74
2024/03/12 14:01:51;;;;;;;28.70;17.90;;;10.10;99.90;;;;;;4985497;28;20829;-74
2024/03/12 14:04:38;;;;;;;30.33;18.60;;;10.10;99.90;;;;;;4988459;28;20519;-73
2024/03/12 14:07:25;;;;;;;29.87;18.97;;;10.20;99.90;;;;;;4987539;28;20888;-73
2024/03/12 14:10:11;;;;;;;26.90;18.00;;;10.20;99.90;;;;;;4987055;28;20560;-73
2024/03/12 14:12:57;;;;;;;27.97;18.23;;;10.20;99.90;;;;;;4987440;28;20440;-74
2024/03/12 14:15:43;;;;;;;30.10;20.70;;;10.20;99.90;;;;;;4984859;28;20547;-72
2024/03/12 14:18:31;;;;;;;32.47;18.40;;;10.20;99.90;;;;;;4984177;28;20498;-73
2024/03/12 14:21:16;;;;;;;27.83;17.33;;;10.20;99.90;;;;;;4984120;28;20468;-73
2024/03/12 14:24:04;;;;;;;30.60;18.40;;;10.10;99.90;;;;;;4988020;28;20472;-74
2024/03/12 14:26:50;;;;;;;33.17;18.43;;;10.10;99.90;;;;;;4984992;28;20819;-74
2024/03/12 14:29:36;;;;;;;30.53;18.67;;;10.10;99.90;;;;;;4985350;28;20456;-74
2024/03/12 14:32:21;;;;;;;33.97;19.93;;;10.10;99.90;;;;;;4981342;28;20934;-74
2024/03/12 14:35:09;;;;;;;29.23;18.50;;;10.10;99.90;;;;;;4984001;28;20762;-74